Impacts TAF Board
For situational awareness. Not to be used for flight planning purposes.
IDs:

KTCC - Tucumcari Muni, NM, US

Issued at 1736 UTC 08 Aug 2020
Updated at 2130 UTC 08 Aug 2020
Potential Impact None Slight Moderate High
Time2053Z 08/22Z 08/23Z 09/00Z 09/01Z 09/02Z 09/03Z 09/04Z 09/05Z 09/06Z 09/07Z 09/08Z 09/09Z 09/10Z>>
Type OBS PRVL PRVL PRVL PRVL PRVL PRVL PRVL PRVL PRVL PRVL PRVL PRVL PRVL
VIS 10 >6 >6 >6 >6 >6 >6 >6 >6 >6 >6 >6 >6 >6
CIG -- -- -- -- -- 120 120 120 120 -- -- -- -- --
Cover CLR SCT SCT SCT SCT BKN BKN BKN BKN SCT SCT SCT SCT SCT
FltCat VFR VFR VFR VFR VFR VFR VFR VFR VFR VFR VFR VFR VFR VFR
WX -- -- -- -- -- VCTS VCTS VCTS VCTS -- -- -- -- --
WDir 170 230 230 230 230 200 200 200 200 210 210 210 210 210
WSpd 12 16 16 16 16 10 10 10 10 8 8 8 8 8
WGst 20 24 24 24 24 -- -- -- -- -- -- -- -- --
Raw TAF
KTCC 081736Z 0818/0918 23014KT P6SM SCT200
  FM081900 23016G24KT P6SM SCT100
  FM090200 20010KT P6SM VCTS BKN120CB
  FM090600 21008KT P6SM SCT120


Raw METAR
KTCC 082053Z AUTO 17012G20KT 10SM CLR 38/09 A3002 RMK AO2 SLP085 T03780094 56018
KTCC 081953Z AUTO 18012G17KT 10SM CLR 37/09 A3004 RMK AO2 SLP092 T03670094
KTCC 081853Z AUTO 19012KT 10SM CLR 36/11 A3005 RMK AO2 SLP099 T03610111

METAR Board
Radar Display
Forecast Discussion
For situational awareness. Not to be used for flight planning purposes.